Aristobulo del Valle, Argentina
Current Conditions -  °F | °C
As of 9:00 AM on Thursday 29 Jan 2015 (Local Time) from SARI Reporting Station
Overcast Overcast  
Wind Chill: 73°   Ceiling: 10000
Heat Index: 73°   Visibility: 6mi
Dew Point: 73°   Wind: 5mph
Humidity: 100%   Direction: 50°NE
Pressure: 29.91"   Gusts: NA
Location:  26.92°S, 54.35°W
Report Text: SARI 291200Z 05004KT 9999 FEW004 SCT025OVC100 23/23 Q1013
Loading
Personal Weather Stations






























Interactive Weather Map New forecast layout! Learn more

10-Day Weather Forecast

Advertisements
Track Severe Weather on mobile